createdAt,value
2023-07-16T00:02:39.231Z,98443.66
2023-07-16T00:08:01.125Z,98444.34
2023-07-16T00:13:22.948Z,98431.53
2023-07-16T00:18:47.934Z,98447.53
2023-07-16T00:24:09.696Z,98424.50
2023-07-16T00:29:31.550Z,98433.50
2023-07-16T00:34:53.424Z,98436.06
2023-07-16T00:40:15.257Z,98456.03
2023-07-16T00:45:38.129Z,98450.09
2023-07-16T00:51:01.570Z,98460.47
2023-07-16T00:56:23.612Z,98446.69
2023-07-16T01:01:45.612Z,98449.22
2023-07-16T01:07:09.820Z,98449.25
2023-07-16T01:12:33.377Z,98473.41
2023-07-16T01:17:55.339Z,98486.75
2023-07-16T01:23:30.862Z,98496.16
2023-07-16T01:29:30.287Z,98487.00
2023-07-16T01:34:54.099Z,98504.38
2023-07-16T01:40:16.087Z,98497.75
2023-07-16T01:45:37.971Z,98496.16
2023-07-16T01:50:59.975Z,98490.28
2023-07-16T01:56:21.873Z,98473.28
2023-07-16T02:01:43.767Z,98488.09
2023-07-16T02:07:05.798Z,98504.13
2023-07-16T02:12:27.662Z,98502.59
2023-07-16T02:17:49.459Z,98507.47
2023-07-16T02:23:11.381Z,98503.25
2023-07-16T02:28:33.260Z,98520.22
2023-07-16T02:33:55.097Z,98527.78
2023-07-16T02:39:16.895Z,98511.00
2023-07-16T02:44:42.915Z,98507.66
2023-07-16T02:50:05.220Z,98528.34
2023-07-16T02:55:27.024Z,98525.28
2023-07-16T03:00:48.936Z,98517.22
2023-07-16T03:06:10.888Z,98552.97
2023-07-16T03:11:32.752Z,98540.84
2023-07-16T03:16:54.618Z,98541.25
2023-07-16T03:22:16.577Z,98569.13
2023-07-16T03:27:38.442Z,98589.09
2023-07-16T03:33:00.260Z,98581.00
2023-07-16T03:38:22.040Z,98604.84
2023-07-16T03:43:43.869Z,98610.97
2023-07-16T03:49:10.107Z,98592.13
2023-07-16T03:54:32.194Z,98626.97
2023-07-16T03:59:53.972Z,98643.69
2023-07-16T04:05:15.816Z,98657.22
2023-07-16T04:10:37.662Z,98645.25
2023-07-16T04:15:59.910Z,98636.84
2023-07-16T04:21:22.208Z,98631.72
2023-07-16T04:26:44.152Z,98634.66
2023-07-16T04:32:06.346Z,98661.84
2023-07-16T04:37:28.232Z,98663.25
2023-07-16T04:42:50.131Z,98675.50
2023-07-16T04:48:11.967Z,98689.56
2023-07-16T04:53:33.754Z,98678.69
2023-07-16T04:58:55.550Z,98684.69
2023-07-16T05:04:17.469Z,98681.91
2023-07-16T05:09:39.327Z,98693.34
2023-07-16T05:15:01.173Z,98692.94
2023-07-16T05:20:22.990Z,98702.69
2023-07-16T05:25:49.408Z,98692.81
2023-07-16T05:31:11.508Z,98698.94
2023-07-16T05:36:33.472Z,98703.28
2023-07-16T05:41:55.410Z,98721.00
2023-07-16T05:47:17.550Z,98708.31
2023-07-16T05:52:39.512Z,98727.25
2023-07-16T05:58:01.568Z,98730.59
2023-07-16T06:03:23.485Z,98713.44
2023-07-16T06:08:45.402Z,98709.06
2023-07-16T06:14:07.242Z,98707.66
2023-07-16T06:19:29.436Z,98737.44
2023-07-16T06:24:51.274Z,98740.53
2023-07-16T06:30:13.140Z,98721.13
2023-07-16T06:35:35.180Z,98730.03
2023-07-16T06:40:57.052Z,98723.88
2023-07-16T06:46:19.137Z,98736.13
2023-07-16T06:51:41.302Z,98723.09
2023-07-16T06:57:03.246Z,98724.63
2023-07-16T07:02:25.165Z,98742.38
2023-07-16T07:07:47.077Z,98733.22
2023-07-16T07:13:08.925Z,98735.22
2023-07-16T07:18:30.841Z,98720.44
2023-07-16T07:23:52.705Z,98717.75
2023-07-16T07:29:14.745Z,98708.72
2023-07-16T07:34:36.649Z,98719.81
2023-07-16T07:40:00.270Z,98740.50
2023-07-16T07:45:22.198Z,98734.63
2023-07-16T07:50:44.046Z,98741.94
2023-07-16T07:56:05.941Z,98741.09
2023-07-16T08:01:28.151Z,98752.81
2023-07-16T08:06:51.030Z,98763.78
2023-07-16T08:12:15.669Z,98752.47
2023-07-16T08:17:37.824Z,98758.44
2023-07-16T08:22:59.715Z,98751.78
2023-07-16T08:28:21.607Z,98753.59
2023-07-16T08:33:43.441Z,98719.28
2023-07-16T08:39:05.278Z,98717.75
2023-07-16T08:44:27.737Z,98737.66
2023-07-16T08:49:59.429Z,98737.03
2023-07-16T08:55:21.509Z,98733.13
2023-07-16T09:00:47.083Z,98741.66
2023-07-16T09:06:08.999Z,98726.69
2023-07-16T09:11:30.825Z,98752.72
2023-07-16T09:16:53.827Z,98748.56
2023-07-16T09:22:18.183Z,98739.19
2023-07-16T09:27:40.116Z,98733.19
2023-07-16T09:33:11.995Z,98734.13
2023-07-16T09:38:34.327Z,98735.16
2023-07-16T09:43:56.228Z,98720.78
2023-07-16T09:49:19.261Z,98725.66
2023-07-16T09:54:42.210Z,98726.88
2023-07-16T10:00:07.980Z,98714.50
2023-07-16T10:05:30.125Z,98711.31
2023-07-16T10:10:57.917Z,98711.06
2023-07-16T10:16:24.944Z,98713.00
2023-07-16T10:21:46.848Z,98711.03
2023-07-16T10:27:08.765Z,98706.25
2023-07-16T10:32:32.109Z,98716.41
2023-07-16T10:37:55.432Z,98704.66
2023-07-16T10:43:17.309Z,98703.91
2023-07-16T10:48:39.295Z,98697.63
2023-07-16T10:54:01.084Z,98690.34
2023-07-16T10:59:23.086Z,98686.47
2023-07-16T11:04:46.854Z,98690.50
2023-07-16T11:10:09.341Z,98678.91
2023-07-16T11:15:33.684Z,98680.31
2023-07-16T11:20:55.682Z,98682.38
2023-07-16T11:26:17.782Z,98672.81
2023-07-16T11:31:42.524Z,98679.25
2023-07-16T11:37:13.331Z,98691.84
2023-07-16T11:42:35.129Z,98685.53
2023-07-16T11:47:57.051Z,98682.84
2023-07-16T11:53:19.028Z,98670.41
2023-07-16T11:58:40.913Z,98665.56
2023-07-16T12:04:02.843Z,98656.69
2023-07-16T12:09:24.836Z,98652.25
2023-07-16T12:14:46.652Z,98632.72
2023-07-16T12:20:08.693Z,98616.34
2023-07-16T12:25:30.645Z,98613.22
2023-07-16T12:30:52.512Z,98608.13
2023-07-16T12:36:16.061Z,98596.69
2023-07-16T12:41:38.172Z,98589.53
2023-07-16T12:46:59.972Z,98605.34
2023-07-16T12:52:21.889Z,98608.06
2023-07-16T12:57:43.715Z,98601.97
2023-07-16T13:03:06.521Z,98596.66
2023-07-16T13:08:28.375Z,98594.50
2023-07-16T13:13:50.200Z,98588.22
2023-07-16T13:19:12.146Z,98569.72
2023-07-16T13:24:33.944Z,98565.03
2023-07-16T13:29:55.849Z,98572.47
2023-07-16T13:35:17.830Z,98582.09
2023-07-16T13:40:39.680Z,98587.97
2023-07-16T13:46:01.496Z,98586.94
2023-07-16T13:51:23.408Z,98579.94
2023-07-16T13:56:45.454Z,98575.28
2023-07-16T14:02:07.572Z,98586.53
2023-07-16T14:07:29.669Z,98572.56
2023-07-16T14:12:51.557Z,98571.47
2023-07-16T14:18:13.483Z,98566.50
2023-07-16T14:23:35.406Z,98565.38
2023-07-16T14:28:57.660Z,98584.00
2023-07-16T14:40:10.190Z,98588.28
2023-07-16T14:45:32.230Z,98597.00
2023-07-16T14:50:54.690Z,98594.53
2023-07-16T14:56:16.814Z,98589.19
2023-07-16T15:01:40.048Z,98598.59
2023-07-16T15:07:02.619Z,98597.13
2023-07-16T15:12:24.563Z,98582.94
2023-07-16T15:17:46.594Z,98589.44
2023-07-16T15:23:08.714Z,98585.31
2023-07-16T15:28:35.212Z,98573.59
2023-07-16T15:33:57.916Z,98576.59
2023-07-16T15:39:19.920Z,98577.56
2023-07-16T15:44:42.876Z,98571.56
2023-07-16T15:50:05.039Z,98573.50
2023-07-16T15:55:27.177Z,98578.63
2023-07-16T16:00:49.118Z,98567.69
2023-07-16T16:06:11.140Z,98554.88
2023-07-16T16:11:33.027Z,98551.31
2023-07-16T16:17:06.069Z,98545.00
2023-07-16T16:22:29.158Z,98545.94
2023-07-16T16:27:51.071Z,98562.75
2023-07-16T16:33:13.106Z,98564.13
2023-07-16T16:38:34.999Z,98574.13
2023-07-16T16:43:56.836Z,98565.81
2023-07-16T16:49:18.910Z,98578.56
2023-07-16T16:54:40.705Z,98586.78
2023-07-16T17:00:05.394Z,98589.13
2023-07-16T17:05:27.818Z,98597.75
2023-07-16T17:10:50.239Z,98588.41
2023-07-16T17:16:12.101Z,98579.34
2023-07-16T17:21:34.171Z,98583.63
2023-07-16T17:26:56.095Z,98590.59
2023-07-16T17:32:18.013Z,98597.84
2023-07-16T17:37:39.970Z,98598.66
2023-07-16T17:43:01.853Z,98605.00
2023-07-16T17:48:24.597Z,98607.53
2023-07-16T17:53:46.538Z,98610.41
2023-07-16T17:59:11.449Z,98620.53
2023-07-16T18:04:33.520Z,98618.66
2023-07-16T18:09:55.616Z,98628.91
2023-07-16T18:15:17.637Z,98642.75
2023-07-16T18:20:39.449Z,98635.47
2023-07-16T18:26:01.674Z,98636.56
2023-07-16T18:31:24.365Z,98643.47
2023-07-16T18:36:46.295Z,98639.38
2023-07-16T18:42:08.406Z,98638.97
2023-07-16T18:47:30.565Z,98633.22
2023-07-16T18:52:52.570Z,98627.19
2023-07-16T18:58:14.816Z,98636.75
2023-07-16T19:03:36.887Z,98623.91
2023-07-16T19:08:58.742Z,98618.47
2023-07-16T19:14:20.618Z,98630.09
2023-07-16T19:19:43.830Z,98641.03
2023-07-16T19:25:06.378Z,98651.06
2023-07-16T19:30:28.446Z,98661.44
2023-07-16T19:36:05.045Z,98656.13
2023-07-16T19:41:40.730Z,98671.53
2023-07-16T19:47:02.769Z,98679.84
2023-07-16T19:52:24.724Z,98680.34
2023-07-16T19:57:46.606Z,98687.88
2023-07-16T20:03:08.619Z,98688.25
2023-07-16T20:08:30.468Z,98689.59
2023-07-16T20:13:52.947Z,98700.28
2023-07-16T20:19:15.213Z,98693.09
2023-07-16T20:24:36.984Z,98681.44
2023-07-16T20:29:59.136Z,98689.28
2023-07-16T20:35:21.311Z,98699.34
2023-07-16T20:40:43.258Z,98705.34
2023-07-16T20:46:05.506Z,98715.84
2023-07-16T20:51:27.443Z,98713.19
2023-07-16T20:56:49.265Z,98708.00
2023-07-16T21:02:11.109Z,98707.84
2023-07-16T21:07:36.012Z,98705.69
2023-07-16T21:13:03.241Z,98708.53
2023-07-16T21:18:25.221Z,98717.38
2023-07-16T21:23:47.095Z,98725.16
2023-07-16T21:29:09.351Z,98737.31
2023-07-16T21:34:31.224Z,98735.09
2023-07-16T21:39:53.072Z,98740.53
2023-07-16T21:45:15.040Z,98732.78
2023-07-16T21:50:37.001Z,98726.41
2023-07-16T21:55:58.841Z,98737.63
2023-07-16T22:01:20.909Z,98743.28
2023-07-16T22:06:42.846Z,98733.44
2023-07-16T22:12:04.973Z,98748.53
2023-07-16T22:17:27.275Z,98748.00
2023-07-16T22:22:49.246Z,98746.75
2023-07-16T22:28:11.071Z,98738.91
2023-07-16T22:33:32.956Z,98745.78
2023-07-16T22:38:54.824Z,98751.94
2023-07-16T22:44:16.682Z,98752.94
2023-07-16T22:49:38.474Z,98756.34
2023-07-16T22:55:00.287Z,98763.53
2023-07-16T23:00:23.289Z,98767.72
2023-07-16T23:05:45.167Z,98764.81
2023-07-16T23:11:07.066Z,98769.19
2023-07-16T23:16:29.354Z,98761.53
2023-07-16T23:21:51.160Z,98766.88
2023-07-16T23:27:13.995Z,98764.75
2023-07-16T23:32:35.985Z,98769.44
2023-07-16T23:37:57.962Z,98767.31
2023-07-16T23:43:19.915Z,98768.75
2023-07-16T23:48:41.776Z,98770.63
2023-07-16T23:54:20.752Z,98778.47
2023-07-16T23:59:43.664Z,98777.06
